Terminal Aerodrome Forecast
Issued by NWS Tampa Bay Area, FL

Home | Current Version | Previous Version | Text Only | Print | Product List | Glossary On
Versions: 1 2 3 4 5 6 7 8 9 10 11 12 13
294
FTUS42 KTBW 130541
TAFFMY
TAF
KFMY 130541Z 1306/1406 23004KT P6SM SKC
     FM130900 27004KT 6SM BR FEW002 FEW025
      TEMPO 1309/1312 4SM BR SCT002
     FM131200 32005KT 6SM BR FEW005 SCT025
     FM131500 35010G17KT P6SM FEW040
     FM140000 01008KT P6SM SKC=

USA.gov is the U.S. government's official web portal to all federal, state and local government web resources and services.